Time;durP1;ratioP1;P1;durP2;ratioP2;P2;SDS_P1;SDS_P2;PMS_P1;PMS_P2;Temp;Humidity;BMP_temperature;BMP_pressure;BME280_temperature;BME280_humidity;BME280_pressure;Samples;Min_cycle;Max_cycle;Signal;HPM_P1;HPM_P2
2024/01/31 00:01:09;;;;;;;1.00;1.00;;;8.40;99.90;;;;;;5068750;28;20105;-87
2024/01/31 00:03:35;;;;;;;0.95;0.95;;;8.50;99.90;;;;;;5053916;28;20064;-86
2024/01/31 00:06:02;;;;;;;0.90;0.90;;;8.30;99.90;;;;;;5066554;28;20048;-86
2024/01/31 00:08:28;;;;;;;1.00;1.00;;;8.20;99.90;;;;;;5059738;28;20044;-86
2024/01/31 00:10:53;;;;;;;1.00;1.00;;;8.30;99.90;;;;;;5066134;28;20104;-86
2024/01/31 00:13:19;;;;;;;1.00;1.00;;;8.30;99.90;;;;;;5050416;28;20036;-86
2024/01/31 00:15:45;;;;;;;0.90;0.90;;;8.40;99.90;;;;;;5051706;28;20378;-87
2024/01/31 00:18:10;;;;;;;0.93;0.93;;;8.20;99.90;;;;;;5067465;28;20039;-85
2024/01/31 00:20:36;;;;;;;1.00;1.00;;;8.40;99.90;;;;;;5070024;28;20051;-86
2024/01/31 00:23:02;;;;;;;0.90;0.90;;;8.20;99.90;;;;;;5067027;28;20102;-86
2024/01/31 00:25:28;;;;;;;1.00;1.00;;;8.10;99.90;;;;;;5066889;28;20040;-86
2024/01/31 00:27:53;;;;;;;1.00;1.00;;;8.10;99.90;;;;;;5065337;28;20051;-86
2024/01/31 00:30:19;;;;;;;1.00;1.00;;;8.00;99.90;;;;;;5066713;28;20241;-86
2024/01/31 00:32:45;;;;;;;1.10;1.10;;;8.00;99.90;;;;;;5067471;28;20039;-86
2024/01/31 00:35:10;;;;;;;1.00;1.00;;;8.20;99.90;;;;;;5050419;28;20036;-86
2024/01/31 00:37:36;;;;;;;1.00;1.00;;;8.00;99.90;;;;;;5050543;28;20050;-86
2024/01/31 00:40:05;;;;;;;1.10;1.10;;;8.00;99.90;;;;;;5051000;28;20040;-86
2024/01/31 00:42:31;;;;;;;1.08;1.08;;;8.00;99.90;;;;;;5065333;28;20457;-86
2024/01/31 00:44:57;;;;;;;1.10;1.10;;;8.20;99.90;;;;;;5067030;28;20040;-86
2024/01/31 00:47:23;;;;;;;1.10;1.10;;;8.20;99.90;;;;;;5061851;28;20657;-86
2024/01/31 00:49:49;;;;;;;1.25;1.25;;;8.10;99.90;;;;;;5067374;28;20036;-86
2024/01/31 00:52:16;;;;;;;1.20;1.20;;;8.20;99.90;;;;;;5049631;28;20058;-86
2024/01/31 00:54:43;;;;;;;1.10;1.10;;;8.20;99.90;;;;;;5052018;28;20043;-86
2024/01/31 00:57:09;;;;;;;1.20;1.20;;;8.10;99.90;;;;;;5065611;28;20497;-86
2024/01/31 00:59:34;;;;;;;1.20;1.20;;;8.30;99.90;;;;;;5065990;28;20036;-86
2024/01/31 01:02:00;;;;;;;1.20;1.20;;;8.30;99.90;;;;;;5065074;28;20184;-86
2024/01/31 01:04:26;;;;;;;1.20;1.20;;;8.10;99.90;;;;;;5065814;28;20044;-87
2024/01/31 01:06:51;;;;;;;1.30;1.30;;;8.10;99.90;;;;;;5066848;28;20044;-86
2024/01/31 01:09:17;;;;;;;1.30;1.30;;;8.20;99.90;;;;;;5065604;28;20562;-87
2024/01/31 01:11:43;;;;;;;1.20;1.20;;;8.00;99.90;;;;;;5048210;28;20624;-87
2024/01/31 01:14:09;;;;;;;1.33;1.30;;;8.20;99.90;;;;;;5059114;28;20066;-85
2024/01/31 01:16:34;;;;;;;1.30;1.30;;;8.30;99.90;;;;;;5050733;28;20807;-87
2024/01/31 01:19:01;;;;;;;1.30;1.30;;;8.10;99.90;;;;;;5064900;28;20046;-86
2024/01/31 01:21:26;;;;;;;1.30;1.30;;;8.20;99.90;;;;;;5064471;28;20046;-87
2024/01/31 01:23:52;;;;;;;1.20;1.20;;;8.20;99.90;;;;;;5049346;28;20426;-87
2024/01/31 01:26:18;;;;;;;1.17;1.17;;;8.10;99.90;;;;;;5046887;28;20131;-87
2024/01/31 01:28:43;;;;;;;1.20;1.20;;;8.30;99.90;;;;;;5065466;28;20112;-87
2024/01/31 01:31:10;;;;;;;1.20;1.20;;;8.10;99.90;;;;;;5063679;28;20055;-87
2024/01/31 01:33:36;;;;;;;1.10;1.10;;;8.00;99.90;;;;;;5064085;28;20119;-87
2024/01/31 01:36:03;;;;;;;1.20;1.20;;;8.20;99.90;;;;;;5067600;28;20123;-87
2024/01/31 01:38:29;;;;;;;1.20;1.20;;;8.00;99.90;;;;;;5066075;28;20388;-87
2024/01/31 01:40:55;;;;;;;1.20;1.20;;;8.20;99.90;;;;;;5065368;28;20471;-87
2024/01/31 01:43:21;;;;;;;1.25;1.25;;;8.10;99.90;;;;;;5049856;28;20135;-86
2024/01/31 01:45:46;;;;;;;1.50;1.40;;;8.30;99.90;;;;;;5068723;28;20055;-86
2024/01/31 01:48:15;;;;;;;1.30;1.30;;;8.00;99.90;;;;;;5061731;28;20405;-86
2024/01/31 01:50:41;;;;;;;1.30;1.30;;;8.00;99.90;;;;;;5066049;28;20040;-87
2024/01/31 01:53:07;;;;;;;1.30;1.30;;;8.00;99.90;;;;;;5066598;28;20044;-86
2024/01/31 01:55:34;;;;;;;1.50;1.40;;;8.20;99.90;;;;;;5066678;28;20048;-88
2024/01/31 01:58:00;;;;;;;1.35;1.35;;;8.20;99.90;;;;;;5066779;28;20040;-87
2024/01/31 02:00:27;;;;;;;1.50;1.40;;;8.10;99.90;;;;;;5065497;28;20048;-87
2024/01/31 02:02:53;;;;;;;1.38;1.38;;;8.00;99.90;;;;;;5065915;28;20048;-87
2024/01/31 02:05:18;;;;;;;1.60;1.50;;;7.90;99.90;;;;;;5067722;28;20649;-87
2024/01/31 02:07:44;;;;;;;1.38;1.38;;;7.80;99.90;;;;;;5050098;28;20048;-86
2024/01/31 02:10:10;;;;;;;1.60;1.50;;;8.00;99.90;;;;;;5082887;28;20058;-87
2024/01/31 02:12:36;;;;;;;1.52;1.42;;;7.80;99.90;;;;;;5062147;28;20408;-87
2024/01/31 02:15:02;;;;;;;1.58;1.48;;;8.10;99.90;;;;;;5066402;28;20044;-87
2024/01/31 02:17:28;;;;;;;1.58;1.48;;;8.00;99.90;;;;;;5068867;28;20044;-87
2024/01/31 02:19:53;;;;;;;1.50;1.40;;;7.80;99.90;;;;;;5067236;28;20044;-86
2024/01/31 02:22:19;;;;;;;1.60;1.50;;;7.90;99.90;;;;;;5047525;28;20387;-87
2024/01/31 02:24:45;;;;;;;1.63;1.52;;;8.00;99.90;;;;;;5049503;28;20098;-86
2024/01/31 02:27:12;;;;;;;1.60;1.50;;;7.80;99.90;;;;;;5066675;28;20048;-86
2024/01/31 02:29:38;;;;;;;1.58;1.48;;;7.80;99.90;;;;;;5065953;28;20123;-87
2024/01/31 02:32:05;;;;;;;1.60;1.50;;;7.90;99.90;;;;;;5056848;28;20042;-86
2024/01/31 02:34:32;;;;;;;1.65;1.55;;;7.80;99.90;;;;;;5065736;28;20118;-87
2024/01/31 02:36:57;;;;;;;1.55;1.45;;;7.70;99.90;;;;;;5066050;28;20459;-87
2024/01/31 02:39:24;;;;;;;1.50;1.40;;;7.90;99.90;;;;;;5065608;28;20048;-87
2024/01/31 02:41:51;;;;;;;1.63;1.52;;;7.70;99.90;;;;;;5065895;28;20048;-88
2024/01/31 02:44:18;;;;;;;1.70;1.60;;;7.70;99.90;;;;;;5068053;28;20040;-86
2024/01/31 02:46:44;;;;;;;1.70;1.60;;;7.90;99.90;;;;;;5052636;28;20489;-87
2024/01/31 02:49:10;;;;;;;1.80;1.70;;;7.90;99.90;;;;;;5055124;28;20050;-87
2024/01/31 02:51:36;;;;;;;1.80;1.70;;;7.70;99.90;;;;;;5065556;28;20052;-87
2024/01/31 02:54:01;;;;;;;1.75;1.65;;;7.90;99.90;;;;;;5052056;28;20044;-85
2024/01/31 02:56:27;;;;;;;1.77;1.67;;;7.90;99.90;;;;;;5070192;28;20044;-87
2024/01/31 02:58:52;;;;;;;1.90;1.80;;;7.60;99.90;;;;;;5047543;28;20063;-87
2024/01/31 03:01:18;;;;;;;1.85;1.75;;;8.00;99.90;;;;;;5067888;28;20048;-87
2024/01/31 03:03:44;;;;;;;1.80;1.70;;;7.90;99.90;;;;;;5072143;28;20788;-88
2024/01/31 03:06:10;;;;;;;1.85;1.75;;;7.60;99.90;;;;;;5070023;28;20051;-87
2024/01/31 03:08:36;;;;;;;1.85;1.75;;;7.90;99.90;;;;;;5053785;28;20051;-87
2024/01/31 03:11:02;;;;;;;2.00;1.90;;;7.60;99.90;;;;;;5070068;28;20542;-87
2024/01/31 03:13:27;;;;;;;1.90;1.80;;;7.80;99.90;;;;;;5052436;28;20044;-86
2024/01/31 03:15:53;;;;;;;1.80;1.70;;;8.00;99.90;;;;;;5069835;28;20047;-87
2024/01/31 03:18:19;;;;;;;1.90;1.80;;;8.00;99.90;;;;;;5053647;28;20184;-87
2024/01/31 03:20:44;;;;;;;1.88;1.77;;;7.90;99.90;;;;;;5068420;28;20043;-87
2024/01/31 03:23:10;;;;;;;1.90;1.80;;;7.70;99.90;;;;;;5067495;28;20282;-87
2024/01/31 03:25:36;;;;;;;1.88;1.77;;;7.90;99.90;;;;;;5071856;28;20150;-87
2024/01/31 03:28:01;;;;;;;1.88;1.77;;;7.90;99.90;;;;;;5069497;28;20036;-86
2024/01/31 03:30:27;;;;;;;1.90;1.80;;;8.00;99.90;;;;;;5045517;28;20056;-86
2024/01/31 03:32:53;;;;;;;1.80;1.70;;;7.80;99.90;;;;;;5068742;28;20052;-87
2024/01/31 03:35:18;;;;;;;1.90;1.80;;;7.80;99.90;;;;;;5052634;28;20059;-87
2024/01/31 03:37:45;;;;;;;1.80;1.70;;;7.90;99.90;;;;;;5076243;28;20040;-86
2024/01/31 03:40:10;;;;;;;2.00;1.90;;;7.90;99.90;;;;;;5068497;28;20056;-87
2024/01/31 03:42:36;;;;;;;1.90;1.80;;;8.00;99.90;;;;;;5053034;28;20572;-87
2024/01/31 03:45:04;;;;;;;1.95;1.85;;;7.80;99.90;;;;;;5068244;28;20127;-87
2024/01/31 03:47:30;;;;;;;1.80;1.70;;;7.90;99.90;;;;;;5068862;28;20152;-87
2024/01/31 03:49:56;;;;;;;1.90;1.80;;;8.00;99.90;;;;;;5066792;28;20398;-86
2024/01/31 03:52:23;;;;;;;1.80;1.70;;;8.00;99.90;;;;;;5062738;28;20044;-87
2024/01/31 03:54:49;;;;;;;1.90;1.80;;;8.00;99.90;;;;;;5067704;28;20051;-86
2024/01/31 03:57:15;;;;;;;1.80;1.70;;;8.00;99.90;;;;;;5068636;28;20044;-88
2024/01/31 03:59:40;;;;;;;1.80;1.70;;;8.00;99.90;;;;;;5068869;28;20069;-87
2024/01/31 04:02:06;;;;;;;1.85;1.75;;;7.90;99.90;;;;;;5068623;28;20766;-88
2024/01/31 04:04:32;;;;;;;2.00;1.90;;;7.80;99.90;;;;;;5068814;28;20105;-87
2024/01/31 04:06:58;;;;;;;1.90;1.80;;;7.90;99.90;;;;;;5070290;28;20137;-87
2024/01/31 04:09:23;;;;;;;1.90;1.80;;;7.80;99.90;;;;;;5068543;28;20047;-87
2024/01/31 04:11:49;;;;;;;2.00;1.90;;;7.80;99.90;;;;;;5069813;28;20119;-88
2024/01/31 04:14:15;;;;;;;2.00;1.90;;;7.90;99.90;;;;;;5051936;28;21088;-88
2024/01/31 04:16:40;;;;;;;2.10;2.00;;;7.80;99.90;;;;;;5069768;28;20081;-86
2024/01/31 04:19:07;;;;;;;2.00;1.90;;;8.00;99.90;;;;;;5068217;28;20039;-87
2024/01/31 04:21:32;;;;;;;2.00;1.90;;;8.00;99.90;;;;;;5068063;28;20077;-87
2024/01/31 04:23:58;;;;;;;1.90;1.80;;;7.80;99.90;;;;;;5069139;28;20442;-87
2024/01/31 04:26:24;;;;;;;1.80;1.70;;;8.00;99.90;;;;;;5052201;28;20048;-87
2024/01/31 04:28:49;;;;;;;1.90;1.80;;;7.80;99.90;;;;;;5067896;28;20047;-87
2024/01/31 04:31:15;;;;;;;1.77;1.67;;;7.70;99.90;;;;;;5066745;28;20066;-87
2024/01/31 04:33:42;;;;;;;1.90;1.80;;;7.90;99.90;;;;;;5065778;28;20048;-88
2024/01/31 04:36:08;;;;;;;1.73;1.63;;;7.90;99.90;;;;;;5068401;28;20054;-87
2024/01/31 04:38:33;;;;;;;1.70;1.60;;;7.90;99.90;;;;;;5050991;28;20054;-86
2024/01/31 04:41:00;;;;;;;1.80;1.70;;;7.70;99.90;;;;;;5050006;28;20044;-87
2024/01/31 04:43:26;;;;;;;1.73;1.63;;;7.70;99.90;;;;;;5067145;28;20055;-87
2024/01/31 04:45:51;;;;;;;1.70;1.60;;;7.70;99.90;;;;;;5051421;28;20040;-87
2024/01/31 04:48:17;;;;;;;1.70;1.60;;;7.90;99.90;;;;;;5065586;28;22092;-86
2024/01/31 04:50:44;;;;;;;1.70;1.60;;;7.90;99.90;;;;;;5067881;28;22196;-87
2024/01/31 04:53:10;;;;;;;1.70;1.60;;;7.90;99.90;;;;;;5067792;28;20393;-86
2024/01/31 04:55:38;;;;;;;1.75;1.65;;;7.80;99.90;;;;;;5085218;28;20050;-87
2024/01/31 04:58:04;;;;;;;1.83;1.73;;;7.80;99.90;;;;;;5068054;28;20044;-87
2024/01/31 05:00:30;;;;;;;1.70;1.60;;;7.90;99.90;;;;;;5063243;28;20047;-87
2024/01/31 05:02:55;;;;;;;1.80;1.70;;;7.80;99.90;;;;;;5053153;28;20097;-87
2024/01/31 05:05:21;;;;;;;1.80;1.70;;;7.70;99.90;;;;;;5067917;28;20077;-87
2024/01/31 05:07:47;;;;;;;1.70;1.60;;;7.70;99.90;;;;;;5065303;28;20050;-86
2024/01/31 05:10:13;;;;;;;1.80;1.70;;;7.90;99.90;;;;;;5068783;28;20048;-87
2024/01/31 05:12:38;;;;;;;1.83;1.73;;;7.80;99.90;;;;;;5048335;28;20164;-87
2024/01/31 05:15:05;;;;;;;1.90;1.80;;;7.80;99.90;;;;;;5064697;28;20185;-87
2024/01/31 05:17:31;;;;;;;1.80;1.70;;;7.80;99.90;;;;;;5050801;28;20040;-87
2024/01/31 05:19:56;;;;;;;1.70;1.60;;;7.90;99.90;;;;;;5066773;28;20040;-87
2024/01/31 05:22:22;;;;;;;1.90;1.80;;;7.90;99.90;;;;;;5066370;28;20048;-87
2024/01/31 05:24:48;;;;;;;1.90;1.80;;;7.90;99.90;;;;;;5068989;28;20047;-87
2024/01/31 05:27:13;;;;;;;1.90;1.80;;;7.80;99.90;;;;;;5071991;28;20040;-87
2024/01/31 05:29:39;;;;;;;1.90;1.80;;;7.90;99.90;;;;;;5068394;28;20779;-87
2024/01/31 05:32:05;;;;;;;2.00;1.90;;;7.90;99.90;;;;;;5049920;28;20503;-88
2024/01/31 05:34:31;;;;;;;2.03;1.92;;;7.90;99.90;;;;;;5067350;28;20508;-87
2024/01/31 05:36:57;;;;;;;2.10;2.00;;;7.70;99.90;;;;;;5066487;28;20136;-87
2024/01/31 05:39:23;;;;;;;2.00;1.90;;;7.90;99.90;;;;;;5065396;28;20052;-87
2024/01/31 05:41:48;;;;;;;2.10;2.00;;;7.80;99.90;;;;;;5065844;28;20413;-88
2024/01/31 05:44:14;;;;;;;2.10;2.00;;;7.80;99.90;;;;;;5066549;28;20067;-88
2024/01/31 05:46:40;;;;;;;2.00;1.90;;;7.70;99.90;;;;;;5066622;28;20059;-87
2024/01/31 05:49:05;;;;;;;2.20;2.10;;;7.80;99.90;;;;;;5066257;28;20036;-88
2024/01/31 05:51:31;;;;;;;2.10;2.00;;;7.90;99.90;;;;;;5049765;28;20228;-87
2024/01/31 05:53:57;;;;;;;2.20;2.10;;;7.80;99.90;;;;;;5066503;28;20040;-87
2024/01/31 05:56:23;;;;;;;2.20;2.10;;;7.90;99.90;;;;;;5050073;28;21018;-87
2024/01/31 05:58:49;;;;;;;2.10;2.00;;;7.90;99.90;;;;;;5067258;28;20036;-87
2024/01/31 06:01:14;;;;;;;2.10;2.00;;;7.80;99.90;;;;;;5051338;28;20063;-87
2024/01/31 06:03:40;;;;;;;2.10;2.00;;;7.80;99.90;;;;;;5067784;28;20044;-88
2024/01/31 06:06:06;;;;;;;2.10;2.00;;;7.80;99.90;;;;;;5048865;28;20032;-87
2024/01/31 06:08:35;;;;;;;2.20;2.10;;;8.00;99.90;;;;;;5067556;28;20109;-87
2024/01/31 06:11:04;;;;;;;2.13;2.03;;;7.70;99.90;;;;;;5062281;28;20040;-87
2024/01/31 06:13:30;;;;;;;2.20;2.10;;;7.80;99.90;;;;;;5066005;28;20039;-87
2024/01/31 06:15:56;;;;;;;2.05;1.95;;;7.90;99.90;;;;;;5065163;28;20421;-88
2024/01/31 06:18:22;;;;;;;2.20;2.10;;;7.90;99.90;;;;;;5062985;28;20181;-86
2024/01/31 06:20:51;;;;;;;2.10;2.00;;;7.80;99.90;;;;;;5072818;28;20040;-87
2024/01/31 06:23:17;;;;;;;2.30;2.20;;;7.80;99.90;;;;;;5069189;28;20455;-87
2024/01/31 06:25:43;;;;;;;2.20;2.10;;;7.90;99.90;;;;;;5072561;28;20139;-88
2024/01/31 06:28:09;;;;;;;2.20;2.10;;;7.80;99.90;;;;;;5055195;28;20040;-88
2024/01/31 06:30:43;;;;;;;2.10;2.00;;;7.80;99.90;;;;;;5070966;28;20413;-88
2024/01/31 06:33:10;;;;;;;2.25;2.15;;;7.80;99.90;;;;;;5065942;28;20040;-87
2024/01/31 06:35:36;;;;;;;2.40;2.30;;;7.80;99.90;;;;;;5071021;28;20048;-87
2024/01/31 06:38:05;;;;;;;2.10;2.00;;;7.80;99.90;;;;;;5067074;28;20405;-87
2024/01/31 06:40:31;;;;;;;2.05;1.95;;;7.80;99.90;;;;;;5070813;28;20059;-87
2024/01/31 06:43:00;;;;;;;2.20;2.10;;;7.90;99.90;;;;;;5053551;28;20477;-87
2024/01/31 06:45:28;;;;;;;2.20;2.10;;;7.70;99.90;;;;;;5064416;28;20055;-88
2024/01/31 06:47:54;;;;;;;2.10;2.00;;;7.80;99.90;;;;;;5071091;28;20043;-87
2024/01/31 06:50:21;;;;;;;2.30;2.20;;;8.00;99.90;;;;;;5071090;28;20100;-87
2024/01/31 06:52:47;;;;;;;2.22;2.13;;;7.90;99.90;;;;;;5072699;28;20515;-87
2024/01/31 06:55:16;;;;;;;2.30;2.20;;;7.80;99.90;;;;;;5071453;28;20059;-86
2024/01/31 06:57:42;;;;;;;2.10;2.00;;;7.80;99.90;;;;;;5050209;28;20045;-87
2024/01/31 07:00:12;;;;;;;2.10;2.00;;;7.80;99.90;;;;;;5071641;28;20040;-87
2024/01/31 07:02:38;;;;;;;2.20;2.10;;;7.80;99.90;;;;;;5052443;28;20047;-85
2024/01/31 07:05:04;;;;;;;2.10;2.00;;;7.90;99.90;;;;;;5071018;28;20399;-86
2024/01/31 07:07:30;;;;;;;2.20;2.10;;;7.90;99.90;;;;;;5069423;28;20137;-87
2024/01/31 07:09:56;;;;;;;2.20;2.10;;;7.90;99.90;;;;;;5066110;28;20044;-87
2024/01/31 07:12:22;;;;;;;2.40;2.30;;;7.90;99.90;;;;;;5071899;28;20055;-87
2024/01/31 07:14:47;;;;;;;2.38;2.28;;;7.80;99.90;;;;;;5068515;28;20063;-88
2024/01/31 07:17:13;;;;;;;2.30;2.20;;;7.80;99.90;;;;;;5070849;28;20075;-87
2024/01/31 07:19:42;;;;;;;2.28;2.17;;;7.90;99.90;;;;;;5054875;28;20522;-87
2024/01/31 07:22:09;;;;;;;2.50;2.40;;;7.90;99.90;;;;;;5068090;28;20068;-88
2024/01/31 07:24:34;;;;;;;2.45;2.35;;;7.80;99.90;;;;;;5069447;28;20444;-86
2024/01/31 07:27:01;;;;;;;2.47;2.38;;;7.90;99.90;;;;;;5070793;28;20047;-88
2024/01/31 07:29:26;;;;;;;2.60;2.50;;;7.90;99.90;;;;;;5071433;28;20052;-88
2024/01/31 07:31:53;;;;;;;2.50;2.40;;;7.90;99.90;;;;;;5073053;28;20086;-86
2024/01/31 07:34:19;;;;;;;2.47;2.38;;;7.90;99.90;;;;;;5070431;28;20059;-87
2024/01/31 07:36:45;;;;;;;2.47;2.38;;;7.90;99.90;;;;;;5055377;28;20032;-87
2024/01/31 07:39:11;;;;;;;2.72;2.58;;;7.90;99.90;;;;;;5069466;28;20044;-87
2024/01/31 07:41:37;;;;;;;2.65;2.55;;;7.90;99.90;;;;;;5054125;28;20052;-87
2024/01/31 07:44:03;;;;;;;2.47;2.38;;;7.90;99.90;;;;;;5069435;28;20139;-86
2024/01/31 07:46:29;;;;;;;2.83;2.63;;;7.90;99.90;;;;;;5069576;28;20083;-86
2024/01/31 07:48:55;;;;;;;2.55;2.45;;;7.90;99.90;;;;;;5052905;28;20057;-88
2024/01/31 07:51:21;;;;;;;2.70;2.58;;;7.90;99.90;;;;;;5053039;28;20126;-86
2024/01/31 07:53:46;;;;;;;2.92;2.72;;;7.90;99.90;;;;;;5068497;28;20123;-85
2024/01/31 07:56:12;;;;;;;2.85;2.65;;;7.90;99.90;;;;;;5052868;28;20042;-86
2024/01/31 07:58:39;;;;;;;2.60;2.50;;;7.90;99.90;;;;;;5070495;28;20070;-87
2024/01/31 08:01:05;;;;;;;2.63;2.50;;;7.90;99.90;;;;;;5070991;28;20059;-87
2024/01/31 08:03:31;;;;;;;2.78;2.60;;;7.90;99.90;;;;;;5070157;28;20051;-87
2024/01/31 08:05:59;;;;;;;2.75;2.58;;;8.00;99.90;;;;;;5068512;28;20121;-86
2024/01/31 08:08:25;;;;;;;2.78;2.63;;;7.90;99.90;;;;;;5069283;28;20044;-88
2024/01/31 08:10:50;;;;;;;2.55;2.45;;;7.90;99.90;;;;;;5051348;28;20055;-87
2024/01/31 08:13:16;;;;;;;2.92;2.72;;;7.90;27.90;;;;;;5053417;28;20044;-88
2024/01/31 08:15:42;;;;;;;2.78;2.60;;;7.90;1.00;;;;;;5069112;28;20065;-87
2024/01/31 08:18:08;;;;;;;2.70;2.55;;;8.00;1.00;;;;;;5049980;28;20093;-87
2024/01/31 08:20:33;;;;;;;2.92;2.72;;;8.00;1.00;;;;;;5070069;28;20101;-87
2024/01/31 08:22:59;;;;;;;2.55;2.45;;;8.00;1.00;;;;;;5052178;28;20051;-87
2024/01/31 08:25:25;;;;;;;2.55;2.45;;;8.00;1.00;;;;;;5068997;28;20044;-87
2024/01/31 08:27:51;;;;;;;2.35;2.25;;;8.00;1.00;;;;;;5052248;28;20044;-87
2024/01/31 08:30:17;;;;;;;2.33;2.22;;;8.10;1.00;;;;;;5067791;28;20040;-88
2024/01/31 08:32:44;;;;;;;2.25;2.15;;;8.10;1.00;;;;;;5061496;28;20047;-87
2024/01/31 08:35:10;;;;;;;2.50;2.40;;;8.10;1.00;;;;;;5069133;28;20066;-87
2024/01/31 08:37:36;;;;;;;2.40;2.30;;;8.20;1.00;;;;;;5069689;28;20125;-87
2024/01/31 08:40:03;;;;;;;2.22;2.13;;;8.20;1.00;;;;;;5069226;28;20583;-87
2024/01/31 08:42:28;;;;;;;2.20;2.10;;;8.20;1.00;;;;;;5069188;28;20105;-87
2024/01/31 08:44:57;;;;;;;2.10;2.00;;;8.20;1.00;;;;;;5069062;28;20040;-87
2024/01/31 08:47:22;;;;;;;2.20;2.10;;;8.20;1.00;;;;;;5066928;28;20136;-87
2024/01/31 08:49:49;;;;;;;2.10;2.00;;;8.20;1.00;;;;;;5068829;28;20040;-87
2024/01/31 08:52:14;;;;;;;2.10;2.00;;;8.30;1.00;;;;;;5068690;28;20063;-87
2024/01/31 08:54:40;;;;;;;2.10;2.00;;;8.30;1.00;;;;;;5066834;28;20044;-87
2024/01/31 08:57:06;;;;;;;1.90;1.80;;;8.30;1.00;;;;;;5068045;28;20578;-87
2024/01/31 08:59:32;;;;;;;1.90;1.80;;;8.40;1.00;;;;;;5068829;28;20135;-87
2024/01/31 09:01:58;;;;;;;1.75;1.65;;;8.40;99.90;;;;;;5062054;28;20895;-86
2024/01/31 09:04:26;;;;;;;2.00;1.90;;;8.40;99.90;;;;;;5045605;28;20139;-88
2024/01/31 09:06:52;;;;;;;1.73;1.63;;;8.40;99.90;;;;;;5047486;28;20048;-86
2024/01/31 09:09:17;;;;;;;1.52;1.42;;;8.40;99.90;;;;;;5067470;28;20040;-85
2024/01/31 09:11:49;;;;;;;1.60;1.50;;;8.40;99.90;;;;;;5066897;28;20071;-87
2024/01/31 09:14:15;;;;;;;1.60;1.50;;;8.50;99.90;;;;;;5047848;28;20454;-86
2024/01/31 09:16:41;;;;;;;1.70;1.60;;;8.50;99.90;;;;;;5065636;28;20123;-87
2024/01/31 09:19:07;;;;;;;1.50;1.40;;;8.50;99.90;;;;;;5062139;28;20447;-86
2024/01/31 09:21:33;;;;;;;1.60;1.50;;;8.50;99.90;;;;;;5063448;28;20051;-86
2024/01/31 09:23:59;;;;;;;1.50;1.40;;;8.50;99.90;;;;;;5065168;28;20064;-88
2024/01/31 09:26:25;;;;;;;1.60;1.50;;;8.60;99.90;;;;;;5065490;28;20524;-87
2024/01/31 09:28:50;;;;;;;1.30;1.30;;;8.60;99.90;;;;;;5064515;28;20040;-87
2024/01/31 09:31:23;;;;;;;1.48;1.38;;;8.70;99.90;;;;;;5049289;28;20127;-87
2024/01/31 09:33:51;;;;;;;1.30;1.30;;;8.70;99.90;;;;;;5049571;28;20040;-87
2024/01/31 09:36:16;;;;;;;1.20;1.20;;;8.80;40.40;;;;;;5050180;28;20048;-86
2024/01/31 09:38:43;;;;;;;1.20;1.20;;;8.80;1.00;;;;;;5051363;28;20043;-87
2024/01/31 09:41:09;;;;;;;1.20;1.20;;;8.80;1.00;;;;;;5066181;28;20047;-87
2024/01/31 09:43:35;;;;;;;1.20;1.20;;;8.90;1.00;;;;;;5068527;28;20047;-87
2024/01/31 09:46:06;;;;;;;1.20;1.20;;;8.90;99.90;;;;;;5048068;28;20489;-86
2024/01/31 09:48:33;;;;;;;1.10;1.10;;;9.00;99.90;;;;;;5067440;28;20044;-87
2024/01/31 09:51:00;;;;;;;1.20;1.20;;;9.00;1.00;;;;;;5049083;28;20044;-87
2024/01/31 09:53:25;;;;;;;1.10;1.10;;;9.10;99.90;;;;;;5066895;28;20089;-87
2024/01/31 09:55:55;;;;;;;1.10;1.10;;;9.20;99.90;;;;;;5065679;28;20040;-87
2024/01/31 09:58:21;;;;;;;1.00;1.00;;;9.20;99.90;;;;;;5084317;28;20052;-87
2024/01/31 10:00:50;;;;;;;1.10;1.10;;;9.20;99.90;;;;;;5050537;28;20042;-87
2024/01/31 10:03:15;;;;;;;1.13;1.13;;;9.30;99.90;;;;;;5068621;28;20055;-87
2024/01/31 10:05:41;;;;;;;1.20;1.20;;;9.30;99.90;;;;;;5064826;28;20044;-87
2024/01/31 10:08:07;;;;;;;1.17;1.17;;;9.30;99.90;;;;;;5067333;28;20044;-87
2024/01/31 10:10:32;;;;;;;1.20;1.20;;;9.30;99.90;;;;;;5067268;28;20036;-86
2024/01/31 10:12:58;;;;;;;1.20;1.20;;;9.30;99.90;;;;;;5067890;28;20520;-85
2024/01/31 10:15:24;;;;;;;1.10;1.10;;;9.40;99.90;;;;;;5064146;28;20102;-87
2024/01/31 10:17:50;;;;;;;1.27;1.27;;;9.40;99.90;;;;;;5063139;28;20052;-87
2024/01/31 10:20:19;;;;;;;1.10;1.10;;;9.40;99.90;;;;;;5042713;28;20036;-87
2024/01/31 10:22:45;;;;;;;1.27;1.27;;;9.40;99.90;;;;;;5060143;28;20040;-87
2024/01/31 10:25:16;;;;;;;1.20;1.20;;;9.40;2.80;;;;;;5063897;28;20040;-87
2024/01/31 10:27:45;;;;;;;1.10;1.10;;;9.40;1.00;;;;;;5063755;28;20070;-87
2024/01/31 10:30:11;;;;;;;1.10;1.10;;;9.40;1.00;;;;;;5059353;28;20113;-87
2024/01/31 10:32:38;;;;;;;1.10;1.10;;;9.50;1.00;;;;;;5067353;28;20039;-87
2024/01/31 10:35:04;;;;;;;1.10;1.10;;;9.40;1.00;;;;;;5067191;28;20485;-86
2024/01/31 10:37:31;;;;;;;1.20;1.20;;;9.50;7.90;;;;;;5048916;28;20086;-86
2024/01/31 10:39:59;;;;;;;1.20;1.20;;;9.50;27.80;;;;;;5065061;28;20445;-86
2024/01/31 10:42:26;;;;;;;1.10;1.10;;;9.50;75.30;;;;;;5046927;28;20504;-86
2024/01/31 10:44:53;;;;;;;1.27;1.27;;;9.50;78.00;;;;;;5046377;28;20051;-87
2024/01/31 10:47:18;;;;;;;1.10;1.10;;;9.40;1.00;;;;;;5050567;28;20050;-86
2024/01/31 10:49:44;;;;;;;1.10;1.10;;;9.50;1.00;;;;;;5067158;28;20036;-86
2024/01/31 10:52:13;;;;;;;1.20;1.20;;;9.50;80.80;;;;;;5063802;28;20066;-88
2024/01/31 10:54:44;;;;;;;1.10;1.10;;;9.50;23.00;;;;;;5067207;28;20102;-87
2024/01/31 10:57:12;;;;;;;1.20;1.20;;;9.50;45.40;;;;;;5068307;28;20107;-90
2024/01/31 10:59:39;;;;;;;1.20;1.20;;;9.50;71.70;;;;;;5049461;28;20036;-87
2024/01/31 11:02:12;;;;;;;1.23;1.23;;;9.50;23.00;;;;;;5049059;28;21311;-87
2024/01/31 11:04:39;;;;;;;1.20;1.20;;;9.60;99.60;;;;;;5066096;28;20522;-86
2024/01/31 11:07:04;;;;;;;1.27;1.27;;;9.70;61.10;;;;;;5048308;28;20416;-86
2024/01/31 11:09:31;;;;;;;1.17;1.17;;;9.60;1.00;;;;;;5071522;28;20041;-87
2024/01/31 11:12:16;;;;;;;1.10;1.10;;;9.60;1.00;;;;;;5052019;28;20044;-86
2024/01/31 11:14:43;;;;;;;1.20;1.20;;;9.60;1.00;;;;;;5085192;28;20039;-86
2024/01/31 11:17:10;;;;;;;1.20;1.20;;;9.60;1.00;;;;;;5068501;28;20040;-87
2024/01/31 11:19:58;;;;;;;1.95;1.85;;;9.60;1.00;;;;;;5081513;28;20040;-86
2024/01/31 11:22:24;;;;;;;1.20;1.20;;;9.70;1.00;;;;;;5065389;28;20059;-85
2024/01/31 11:24:52;;;;;;;1.30;1.30;;;9.70;1.00;;;;;;5065201;28;20554;-85
2024/01/31 11:27:19;;;;;;;1.30;1.30;;;9.70;1.00;;;;;;5069495;28;20048;-87
2024/01/31 11:29:49;;;;;;;1.15;1.15;;;9.80;1.00;;;;;;5064820;28;20036;-87
2024/01/31 11:32:15;;;;;;;1.20;1.20;;;9.80;1.00;;;;;;5066242;28;20051;-86
2024/01/31 11:34:42;;;;;;;1.30;1.30;;;9.70;1.00;;;;;;5066299;28;20730;-87
2024/01/31 11:37:08;;;;;;;1.27;1.27;;;9.70;1.00;;;;;;5068772;28;20052;-85
2024/01/31 11:39:34;;;;;;;1.15;1.15;;;9.70;1.00;;;;;;5058433;28;20041;-87
2024/01/31 11:42:00;;;;;;;1.20;1.20;;;9.90;1.00;;;;;;5068942;28;20040;-88
2024/01/31 11:44:28;;;;;;;1.30;1.30;;;9.90;1.00;;;;;;5069967;28;20181;-86
2024/01/31 11:46:54;;;;;;;1.10;1.10;;;10.00;1.00;;;;;;5063246;28;20044;-87
2024/01/31 11:49:20;;;;;;;1.20;1.20;;;10.10;1.00;;;;;;5066363;28;20075;-87
2024/01/31 11:51:49;;;;;;;1.30;1.30;;;10.10;1.00;;;;;;5068069;28;20051;-88
2024/01/31 11:54:16;;;;;;;1.20;1.20;;;10.30;1.00;;;;;;5052434;28;20036;-87
2024/01/31 11:56:42;;;;;;;1.20;1.20;;;10.30;99.90;;;;;;5068785;28;20078;-86
2024/01/31 11:59:08;;;;;;;1.20;1.20;;;10.30;1.00;;;;;;5048039;28;20043;-87
2024/01/31 12:01:34;;;;;;;1.38;1.38;;;10.30;1.00;;;;;;5068469;28;20077;-86
2024/01/31 12:04:02;;;;;;;1.50;1.40;;;10.30;99.90;;;;;;5067264;28;20047;-87
2024/01/31 12:06:27;;;;;;;1.20;1.20;;;10.40;99.90;;;;;;5068415;28;20081;-86
2024/01/31 12:08:53;;;;;;;1.30;1.30;;;10.50;99.90;;;;;;5066870;28;20048;-86
2024/01/31 12:11:20;;;;;;;1.45;1.38;;;10.40;99.90;;;;;;5067861;28;20083;-88
2024/01/31 12:13:45;;;;;;;1.42;1.38;;;10.40;99.90;;;;;;5067736;28;20044;-86
2024/01/31 12:16:11;;;;;;;1.42;1.38;;;10.50;99.90;;;;;;5068837;28;20036;-88
2024/01/31 12:18:37;;;;;;;1.67;1.58;;;10.50;99.90;;;;;;5048734;28;20631;-86
2024/01/31 12:21:04;;;;;;;1.48;1.40;;;10.50;99.90;;;;;;5067652;28;20260;-88
2024/01/31 12:23:30;;;;;;;1.35;1.33;;;10.50;99.90;;;;;;5062233;28;20071;-86
2024/01/31 12:25:59;;;;;;;1.38;1.35;;;10.50;99.90;;;;;;5068641;28;20067;-86
2024/01/31 12:28:25;;;;;;;1.65;1.55;;;10.50;99.90;;;;;;5066716;28;20056;-87
2024/01/31 12:30:53;;;;;;;1.30;1.30;;;10.50;99.90;;;;;;5051115;28;20044;-87
2024/01/31 12:33:19;;;;;;;1.40;1.38;;;10.60;99.90;;;;;;5066156;28;20055;-86
2024/01/31 12:35:45;;;;;;;1.30;1.30;;;10.50;99.90;;;;;;5082618;28;20052;-86
2024/01/31 12:38:12;;;;;;;1.55;1.45;;;10.50;99.90;;;;;;5065085;28;20044;-87
2024/01/31 12:40:38;;;;;;;1.85;1.75;;;10.60;99.90;;;;;;5051348;28;20047;-86
2024/01/31 12:43:04;;;;;;;1.60;1.50;;;10.50;99.90;;;;;;5050288;28;20048;-86
2024/01/31 12:45:32;;;;;;;1.67;1.58;;;10.50;99.90;;;;;;5068757;28;20044;-86
2024/01/31 12:47:59;;;;;;;1.52;1.42;;;10.40;99.90;;;;;;5068287;28;20109;-87
2024/01/31 12:50:25;;;;;;;1.60;1.50;;;10.50;99.90;;;;;;5066987;28;20048;-87
2024/01/31 12:52:52;;;;;;;1.38;1.30;;;10.50;99.90;;;;;;5068114;28;20539;-87